createdAt,value
2022-09-12T00:00:00.756Z,15.27
2022-09-12T00:02:27.510Z,15.27
2022-09-12T00:04:54.142Z,15.21
2022-09-12T00:07:20.656Z,15.16
2022-09-12T00:09:47.275Z,15.13
2022-09-12T00:12:13.790Z,15.05
2022-09-12T00:14:40.281Z,15.08
2022-09-12T00:17:06.836Z,15.02
2022-09-12T00:19:35.864Z,14.99
2022-09-12T00:22:02.397Z,14.98
2022-09-12T00:24:28.942Z,15.01
2022-09-12T00:26:57.787Z,14.92
2022-09-12T00:29:26.610Z,14.93
2022-09-12T00:31:55.523Z,14.90
2022-09-12T00:34:22.028Z,14.90
2022-09-12T00:36:48.677Z,14.86
2022-09-12T00:39:16.938Z,14.79
2022-09-12T00:41:44.366Z,14.75
2022-09-12T00:44:10.805Z,14.79
2022-09-12T00:47:13.307Z,14.79
2022-09-12T00:49:49.716Z,14.79
2022-09-12T00:52:38.436Z,14.78
2022-09-12T00:55:10.356Z,14.75
2022-09-12T00:57:44.614Z,14.67
2022-09-12T01:00:15.372Z,14.68
2022-09-12T01:02:44.146Z,14.71
2022-09-12T01:05:13.604Z,14.67
2022-09-12T01:07:44.631Z,14.72
2022-09-12T01:10:16.940Z,14.60
2022-09-12T01:12:44.311Z,14.62
2022-09-12T01:15:11.634Z,14.63
2022-09-12T01:18:21.133Z,14.56
2022-09-12T01:21:25.306Z,14.48
2022-09-12T01:24:11.829Z,14.47
2022-09-12T01:27:03.308Z,14.45
2022-09-12T01:29:35.842Z,14.42
2022-09-12T01:32:33.485Z,14.40
2022-09-12T01:35:07.220Z,14.37
2022-09-12T01:37:44.817Z,14.26
2022-09-12T01:40:27.840Z,14.30
2022-09-12T01:43:17.661Z,14.24
2022-09-12T01:46:06.922Z,14.21
2022-09-12T01:48:42.312Z,14.13
2022-09-12T01:51:32.897Z,14.13
2022-09-12T01:54:11.493Z,14.07
2022-09-12T01:56:41.638Z,14.07
2022-09-12T01:59:18.888Z,14.06
2022-09-12T02:01:58.852Z,13.97
2022-09-12T02:04:34.146Z,14.03
2022-09-12T02:07:03.993Z,14.01
2022-09-12T02:09:38.102Z,14.03
2022-09-12T02:12:08.777Z,14.04
2022-09-12T02:14:40.978Z,14.03
2022-09-12T02:17:23.100Z,13.93
2022-09-12T02:19:55.097Z,13.91
2022-09-12T02:22:28.613Z,13.93
2022-09-12T02:25:00.970Z,13.93
2022-09-12T02:27:34.242Z,13.94
2022-09-12T02:30:00.918Z,13.87
2022-09-12T02:32:35.054Z,13.89
2022-09-12T02:35:10.886Z,13.87
2022-09-12T02:37:58.564Z,13.88
2022-09-12T02:40:25.679Z,13.84
2022-09-12T02:42:55.674Z,13.75
2022-09-12T02:45:23.365Z,13.82
2022-09-12T02:48:10.842Z,13.82
2022-09-12T02:50:41.153Z,13.76
2022-09-12T02:53:08.592Z,13.85
2022-09-12T02:55:36.922Z,13.84
2022-09-12T02:58:06.871Z,13.83
2022-09-12T03:00:47.897Z,13.84
2022-09-12T03:03:23.725Z,13.83
2022-09-12T03:05:50.157Z,13.82
2022-09-12T03:08:34.529Z,13.83
2022-09-12T03:11:09.365Z,13.78
2022-09-12T03:13:48.165Z,13.71
2022-09-12T03:16:44.155Z,13.75
2022-09-12T03:19:45.116Z,13.74
2022-09-12T03:22:20.384Z,13.76
2022-09-12T03:25:10.112Z,13.75
2022-09-12T03:27:43.684Z,13.77
2022-09-12T03:30:11.601Z,13.76
2022-09-12T03:32:53.116Z,13.75
2022-09-12T03:35:23.285Z,13.77
2022-09-12T03:37:51.006Z,13.76
2022-09-12T03:40:17.855Z,13.77
2022-09-12T03:42:44.339Z,13.69
2022-09-12T03:45:11.483Z,13.78
2022-09-12T03:47:38.159Z,13.72
2022-09-12T03:50:06.163Z,13.62
2022-09-12T03:52:35.102Z,13.74
2022-09-12T03:55:01.724Z,13.74
2022-09-12T03:57:30.729Z,13.71
2022-09-12T03:59:57.285Z,13.75
2022-09-12T04:02:23.932Z,13.65
2022-09-12T04:04:50.711Z,13.73
2022-09-12T04:07:17.383Z,13.70
2022-09-12T04:09:43.944Z,13.73
2022-09-12T04:12:10.577Z,13.68
2022-09-12T04:14:37.120Z,13.73
2022-09-12T04:17:05.905Z,13.73
2022-09-12T04:19:34.727Z,13.74
2022-09-12T04:22:01.253Z,13.72
2022-09-12T04:24:30.050Z,13.72
2022-09-12T04:26:59.116Z,13.67
2022-09-12T04:29:25.734Z,13.68
2022-09-12T04:31:52.306Z,13.71
2022-09-12T04:34:18.868Z,13.68
2022-09-12T04:36:45.434Z,13.61
2022-09-12T04:39:12.298Z,13.63
2022-09-12T04:41:41.203Z,13.69
2022-09-12T04:44:13.232Z,13.70
2022-09-12T04:46:43.526Z,13.68
2022-09-12T04:49:10.943Z,13.63
2022-09-12T04:51:41.886Z,13.64
2022-09-12T04:54:12.266Z,13.71
2022-09-12T04:56:41.101Z,13.74
2022-09-12T04:59:08.787Z,13.75
2022-09-12T05:01:35.977Z,13.66
2022-09-12T05:04:03.752Z,13.80
2022-09-12T05:06:35.611Z,13.80
2022-09-12T05:09:04.183Z,13.85
2022-09-12T05:12:02.598Z,13.82
2022-09-12T05:14:23.070Z,13.86
2022-09-12T05:16:49.946Z,13.85
2022-09-12T05:19:17.233Z,13.82
2022-09-12T05:21:43.872Z,13.93
2022-09-12T05:24:11.261Z,13.96
2022-09-12T05:26:37.869Z,13.96
2022-09-12T05:29:06.123Z,14.00
2022-09-12T05:31:35.679Z,13.99
2022-09-12T05:34:05.214Z,14.05
2022-09-12T05:36:31.942Z,14.10
2022-09-12T05:39:01.659Z,14.02
2022-09-12T05:41:30.934Z,14.16
2022-09-12T05:43:59.482Z,14.21
2022-09-12T05:46:28.247Z,14.25
2022-09-12T05:48:56.574Z,14.32
2022-09-12T05:51:26.622Z,14.37
2022-09-12T05:53:58.258Z,14.43
2022-09-12T05:56:29.786Z,14.48
2022-09-12T05:59:04.781Z,14.48
2022-09-12T06:01:33.331Z,14.55
2022-09-12T06:04:04.663Z,14.59
2022-09-12T06:06:32.302Z,14.55
2022-09-12T06:09:01.439Z,14.54
2022-09-12T06:11:31.368Z,14.63
2022-09-12T06:14:04.638Z,14.51
2022-09-12T06:16:33.232Z,14.66
2022-09-12T06:19:03.194Z,14.69
2022-09-12T06:21:34.485Z,14.68
2022-09-12T06:24:01.994Z,14.61
2022-09-12T06:26:30.045Z,14.71
2022-09-12T06:29:01.430Z,14.71
2022-09-12T06:31:33.840Z,14.66
2022-09-12T06:34:03.758Z,14.74
2022-09-12T06:36:36.204Z,14.74
2022-09-12T06:39:05.943Z,14.83
2022-09-12T06:41:34.785Z,14.86
2022-09-12T06:44:04.080Z,14.93
2022-09-12T06:46:31.356Z,15.07
2022-09-12T06:48:59.696Z,15.26
2022-09-12T06:51:30.089Z,15.49
2022-09-12T06:53:59.981Z,15.69
2022-09-12T06:56:29.354Z,15.89
2022-09-12T06:58:58.274Z,16.03
2022-09-12T07:01:30.269Z,16.29
2022-09-12T07:03:59.583Z,16.54
2022-09-12T07:06:34.013Z,16.73
2022-09-12T07:09:02.901Z,16.90
2022-09-12T07:11:34.824Z,16.95
2022-09-12T07:14:05.470Z,17.00
2022-09-12T07:16:32.522Z,17.10
2022-09-12T07:19:01.239Z,17.15
2022-09-12T07:21:28.830Z,17.28
2022-09-12T07:24:00.801Z,17.41
2022-09-12T07:26:29.297Z,17.67
2022-09-12T07:29:18.768Z,18.08
2022-09-12T07:31:46.528Z,18.95
2022-09-12T07:34:13.993Z,20.10
2022-09-12T07:36:40.531Z,21.16
2022-09-12T07:39:07.191Z,21.83
2022-09-12T07:41:38.304Z,22.94
2022-09-12T07:44:08.947Z,24.39
2022-09-12T07:46:35.763Z,26.01
2022-09-12T07:49:03.093Z,26.88
2022-09-12T07:51:30.684Z,27.66
2022-09-12T07:53:58.071Z,28.67
2022-09-12T07:56:31.113Z,28.98
2022-09-12T07:59:00.821Z,29.36
2022-09-12T08:01:30.013Z,29.84
2022-09-12T08:03:59.030Z,30.19
2022-09-12T08:06:27.471Z,30.30
2022-09-12T08:08:58.554Z,30.92
2022-09-12T08:11:28.933Z,30.38
2022-09-12T08:13:58.591Z,30.68
2022-09-12T08:16:28.444Z,31.30
2022-09-12T08:18:58.039Z,31.27
2022-09-12T08:21:30.619Z,30.85
2022-09-12T08:24:02.897Z,30.61
2022-09-12T08:26:30.345Z,30.08
2022-09-12T08:28:57.065Z,29.87
2022-09-12T08:31:25.866Z,30.52
2022-09-12T08:33:56.820Z,30.73
2022-09-12T08:36:26.748Z,30.92
2022-09-12T08:38:59.792Z,30.91
2022-09-12T08:41:46.563Z,31.18
2022-09-12T08:44:19.789Z,31.27
2022-09-12T08:46:47.142Z,31.46
2022-09-12T08:49:22.881Z,31.27
2022-09-12T08:51:50.200Z,31.27
2022-09-12T08:54:29.565Z,31.29
2022-09-12T08:57:04.009Z,31.02
2022-09-12T08:59:49.484Z,31.04
2022-09-12T09:02:43.801Z,30.94
2022-09-12T09:05:25.435Z,30.67
2022-09-12T09:08:01.197Z,30.55
2022-09-12T09:10:34.252Z,30.20
2022-09-12T09:13:00.914Z,29.80
2022-09-12T09:16:05.576Z,29.73
2022-09-12T09:18:35.165Z,29.42
2022-09-12T09:21:41.220Z,29.30
2022-09-12T09:24:16.852Z,28.80
2022-09-12T09:27:18.335Z,28.86
2022-09-12T09:29:58.466Z,28.86
2022-09-12T09:32:28.152Z,28.91
2022-09-12T09:34:57.367Z,28.84
2022-09-12T09:37:34.139Z,28.68
2022-09-12T09:40:22.959Z,28.51
2022-09-12T09:42:53.973Z,28.32
2022-09-12T09:45:24.393Z,28.14
2022-09-12T09:48:14.260Z,28.19
2022-09-12T09:50:41.252Z,28.15
2022-09-12T09:53:21.848Z,28.07
2022-09-12T09:55:50.023Z,28.02
2022-09-12T09:58:34.578Z,27.96
2022-09-12T10:01:03.893Z,27.85
2022-09-12T10:03:36.798Z,27.85
2022-09-12T10:06:19.606Z,27.73
2022-09-12T10:08:46.909Z,27.73
2022-09-12T10:11:17.200Z,27.64
2022-09-12T10:13:54.583Z,27.75
2022-09-12T10:16:24.431Z,27.67
2022-09-12T10:18:57.179Z,27.48
2022-09-12T10:21:23.724Z,27.46
2022-09-12T10:24:21.041Z,27.46
2022-09-12T10:26:57.177Z,27.43
2022-09-12T10:29:39.392Z,27.43
2022-09-12T10:32:09.176Z,27.34
2022-09-12T10:34:42.223Z,27.28
2022-09-12T10:37:16.859Z,27.35
2022-09-12T10:39:57.302Z,27.42
2022-09-12T10:42:42.954Z,27.51
2022-09-12T10:45:29.155Z,27.53
2022-09-12T10:48:05.429Z,27.71
2022-09-12T10:50:43.365Z,27.84
2022-09-12T10:53:35.293Z,27.96
2022-09-12T10:56:05.389Z,28.00
2022-09-12T10:58:47.091Z,27.95
2022-09-12T11:01:25.895Z,27.87
2022-09-12T11:04:07.690Z,27.95
2022-09-12T11:06:48.278Z,28.00
2022-09-12T11:09:35.856Z,28.03
2022-09-12T11:12:07.214Z,28.05
2022-09-12T11:14:51.973Z,28.13
2022-09-12T11:17:37.700Z,28.21
2022-09-12T11:20:33.440Z,28.32
2022-09-12T11:23:09.378Z,28.43
2022-09-12T11:26:00.306Z,28.54
2022-09-12T11:28:47.352Z,28.62
2022-09-12T11:31:36.006Z,28.71
2022-09-12T11:34:11.232Z,28.82
2022-09-12T11:36:46.578Z,28.94
2022-09-12T11:39:16.648Z,29.04
2022-09-12T11:41:55.523Z,29.10
2022-09-12T11:44:29.998Z,29.09
2022-09-12T11:46:59.430Z,29.16
2022-09-12T11:49:38.456Z,29.23
2022-09-12T11:52:10.914Z,29.14
2022-09-12T11:54:53.948Z,29.10
2022-09-12T11:57:29.431Z,29.16
2022-09-12T12:00:02.201Z,29.19
2022-09-12T12:02:43.689Z,29.18
2022-09-12T12:05:20.351Z,29.12
2022-09-12T12:08:01.101Z,29.21
2022-09-12T12:10:32.082Z,29.27
2022-09-12T12:13:04.725Z,29.28
2022-09-12T12:15:31.919Z,29.38
2022-09-12T12:18:30.328Z,29.50
2022-09-12T12:21:17.155Z,29.61
2022-09-12T12:24:07.772Z,29.78
2022-09-12T12:26:42.806Z,29.87
2022-09-12T12:29:32.972Z,29.79
2022-09-12T12:32:02.033Z,29.63
2022-09-12T12:34:40.607Z,29.49
2022-09-12T12:37:19.327Z,29.69
2022-09-12T12:40:08.763Z,29.84
2022-09-12T12:42:37.893Z,29.85
2022-09-12T12:45:27.331Z,29.97
2022-09-12T12:47:59.817Z,29.97
2022-09-12T12:50:29.327Z,30.04
2022-09-12T12:53:05.076Z,29.90
2022-09-12T12:55:38.684Z,29.89
2022-09-12T12:58:41.160Z,30.00
2022-09-12T13:01:15.900Z,29.96
2022-09-12T13:04:12.409Z,29.88
2022-09-12T13:06:44.974Z,29.86
2022-09-12T13:09:14.163Z,29.89
2022-09-12T13:11:41.624Z,29.85
2022-09-12T13:14:43.012Z,29.81
2022-09-12T13:17:26.014Z,29.67
2022-09-12T13:20:26.206Z,29.75
2022-09-12T13:22:52.066Z,29.77
2022-09-12T13:25:22.196Z,29.66
2022-09-12T13:28:07.178Z,29.47
2022-09-12T13:30:49.394Z,29.43
2022-09-12T13:33:40.676Z,29.36
2022-09-12T13:36:53.573Z,29.33
2022-09-12T13:39:52.422Z,29.31
2022-09-12T13:42:50.438Z,29.26
2022-09-12T13:45:35.687Z,29.20
2022-09-12T13:48:18.046Z,29.09
2022-09-12T13:50:52.565Z,28.85
2022-09-12T13:53:24.935Z,28.94
2022-09-12T13:55:56.485Z,28.98
2022-09-12T13:58:26.357Z,28.93
2022-09-12T14:01:12.644Z,28.89
2022-09-12T14:04:00.626Z,28.87
2022-09-12T14:06:28.461Z,28.89
2022-09-12T14:09:01.549Z,28.90
2022-09-12T14:11:30.548Z,28.65
2022-09-12T14:13:57.821Z,28.71
2022-09-12T14:16:29.044Z,28.61
2022-09-12T14:18:56.359Z,28.49
2022-09-12T14:21:31.359Z,28.51
2022-09-12T14:23:59.502Z,28.52
2022-09-12T14:26:28.741Z,28.45
2022-09-12T14:28:55.701Z,28.49
2022-09-12T14:31:29.067Z,28.42
2022-09-12T14:34:08.329Z,28.39
2022-09-12T14:36:44.514Z,28.31
2022-09-12T14:39:48.123Z,28.31
2022-09-12T14:42:18.377Z,28.24
2022-09-12T14:44:56.595Z,28.14
2022-09-12T14:47:27.597Z,28.14
2022-09-12T14:49:54.843Z,28.14
2022-09-12T14:52:30.820Z,28.03
2022-09-12T14:55:22.446Z,28.05
2022-09-12T14:58:26.603Z,28.08
2022-09-12T15:00:56.888Z,28.22
2022-09-12T15:03:29.859Z,28.17
2022-09-12T15:05:57.725Z,28.18
2022-09-12T15:08:24.954Z,28.22
2022-09-12T15:10:51.606Z,28.25
2022-09-12T15:13:23.947Z,28.24
2022-09-12T15:15:56.187Z,28.23
2022-09-12T15:18:25.953Z,28.35
2022-09-12T15:20:58.046Z,28.37
2022-09-12T15:23:36.861Z,28.34
2022-09-12T15:26:04.020Z,28.29
2022-09-12T15:28:31.608Z,28.15
2022-09-12T15:31:03.965Z,28.11
2022-09-12T15:33:33.135Z,28.07
2022-09-12T15:35:59.643Z,27.98
2022-09-12T15:38:26.909Z,27.98
2022-09-12T15:40:54.801Z,27.97
2022-09-12T15:43:26.318Z,27.95
2022-09-12T15:45:53.286Z,27.93
2022-09-12T15:48:21.038Z,27.85
2022-09-12T15:50:48.602Z,27.79
2022-09-12T15:53:16.915Z,27.70
2022-09-12T15:55:44.399Z,27.70
2022-09-12T15:58:11.577Z,27.76
2022-09-12T16:00:38.406Z,27.79
2022-09-12T16:03:17.721Z,27.73
2022-09-12T16:05:47.082Z,27.70
2022-09-12T16:08:16.877Z,27.63
2022-09-12T16:10:45.492Z,27.64
2022-09-12T16:13:12.053Z,27.50
2022-09-12T16:15:40.956Z,27.46
2022-09-12T16:18:07.990Z,27.43
2022-09-12T16:20:34.737Z,27.37
2022-09-12T16:23:03.587Z,27.35
2022-09-12T16:25:30.090Z,27.33
2022-09-12T16:28:01.547Z,27.24
2022-09-12T16:30:28.084Z,27.14
2022-09-12T16:32:54.633Z,26.97
2022-09-12T16:35:21.264Z,26.87
2022-09-12T16:37:47.799Z,26.73
2022-09-12T16:40:17.831Z,26.56
2022-09-12T16:42:44.337Z,26.44
2022-09-12T16:45:14.291Z,26.39
2022-09-12T16:47:41.134Z,26.33
2022-09-12T16:50:11.198Z,26.23
2022-09-12T16:52:37.914Z,26.12
2022-09-12T16:55:04.848Z,26.01
2022-09-12T16:57:32.741Z,25.95
2022-09-12T17:00:02.346Z,25.92
2022-09-12T17:02:31.116Z,25.90
2022-09-12T17:04:57.964Z,25.85
2022-09-12T17:07:24.614Z,25.81
2022-09-12T17:09:53.476Z,25.73
2022-09-12T17:12:20.160Z,25.65
2022-09-12T17:14:46.719Z,25.67
2022-09-12T17:17:15.531Z,25.47
2022-09-12T17:19:43.395Z,25.49
2022-09-12T17:22:10.045Z,25.36
2022-09-12T17:24:36.538Z,25.27
2022-09-12T17:27:03.213Z,25.25
2022-09-12T17:29:32.166Z,25.13
2022-09-12T17:31:59.215Z,25.11
2022-09-12T17:34:25.987Z,25.08
2022-09-12T17:36:52.768Z,25.02
2022-09-12T17:39:19.287Z,24.90
2022-09-12T17:41:46.218Z,24.88
2022-09-12T17:44:15.134Z,24.82
2022-09-12T17:46:42.898Z,24.73
2022-09-12T17:49:15.883Z,24.70
2022-09-12T17:51:43.928Z,24.62
2022-09-12T17:54:12.950Z,24.51
2022-09-12T17:56:40.450Z,24.46
2022-09-12T17:59:09.092Z,24.35
2022-09-12T18:01:56.783Z,24.26
2022-09-12T18:04:23.374Z,24.24
2022-09-12T18:06:53.346Z,24.15
2022-09-12T18:09:27.990Z,24.11
2022-09-12T18:11:54.888Z,24.01
2022-09-12T18:14:22.339Z,24.01
2022-09-12T18:16:52.477Z,23.89
2022-09-12T18:19:19.539Z,23.84
2022-09-12T18:21:46.211Z,23.74
2022-09-12T18:24:14.965Z,23.68
2022-09-12T18:26:44.882Z,23.67
2022-09-12T18:29:12.466Z,23.60
2022-09-12T18:31:39.090Z,23.54
2022-09-12T18:34:06.786Z,23.47
2022-09-12T18:36:33.482Z,23.41
2022-09-12T18:39:00.892Z,23.39
2022-09-12T18:41:29.100Z,23.18
2022-09-12T18:44:01.044Z,23.18
2022-09-12T18:46:29.861Z,23.15
2022-09-12T18:48:58.010Z,23.07
2022-09-12T18:51:31.237Z,22.99
2022-09-12T18:54:00.509Z,22.84
2022-09-12T18:56:32.948Z,22.79
2022-09-12T18:59:01.044Z,22.65
2022-09-12T19:01:33.170Z,22.54
2022-09-12T19:04:01.246Z,22.44
2022-09-12T19:06:32.787Z,22.39
2022-09-12T19:09:02.721Z,21.94
2022-09-12T19:11:34.538Z,22.20
2022-09-12T19:14:04.383Z,22.20
2022-09-12T19:16:34.681Z,22.09
2022-09-12T19:19:04.201Z,22.07
2022-09-12T19:21:32.251Z,21.96
2022-09-12T19:24:14.390Z,21.90
2022-09-12T19:26:43.959Z,21.88
2022-09-12T19:29:11.687Z,21.78
2022-09-12T19:31:38.307Z,21.77
2022-09-12T19:34:07.098Z,21.73
2022-09-12T19:36:50.404Z,21.70
2022-09-12T19:39:19.811Z,21.67
2022-09-12T19:41:47.020Z,21.58
2022-09-12T19:44:19.295Z,21.50
2022-09-12T19:46:45.969Z,21.40
2022-09-12T19:49:13.089Z,21.44
2022-09-12T19:51:40.092Z,21.48
2022-09-12T19:54:07.682Z,21.53
2022-09-12T19:56:34.345Z,21.57
2022-09-12T19:59:01.014Z,21.60
2022-09-12T20:01:31.389Z,21.58
2022-09-12T20:04:00.524Z,21.56
2022-09-12T20:06:27.682Z,21.44
2022-09-12T20:08:55.230Z,21.37
2022-09-12T20:11:23.806Z,21.34
2022-09-12T20:13:51.028Z,21.33
2022-09-12T20:16:25.144Z,21.24
2022-09-12T20:19:00.580Z,21.30
2022-09-12T20:21:34.277Z,21.26
2022-09-12T20:24:12.341Z,21.22
2022-09-12T20:26:42.211Z,21.18
2022-09-12T20:29:10.133Z,21.17
2022-09-12T20:31:41.597Z,21.08
2022-09-12T20:34:14.584Z,21.06
2022-09-12T20:36:41.572Z,20.95
2022-09-12T20:39:12.858Z,20.94
2022-09-12T20:41:41.980Z,20.87
2022-09-12T20:44:08.523Z,20.71
2022-09-12T20:46:35.139Z,20.78
2022-09-12T20:49:01.793Z,20.74
2022-09-12T20:51:29.681Z,20.67
2022-09-12T20:54:00.698Z,20.66
2022-09-12T20:56:28.452Z,20.56
2022-09-12T20:58:58.267Z,20.52
2022-09-12T21:01:31.710Z,20.48
2022-09-12T21:04:00.458Z,20.42
2022-09-12T21:06:27.447Z,20.40
2022-09-12T21:09:00.705Z,20.41
2022-09-12T21:11:31.066Z,20.37
2022-09-12T21:13:58.141Z,20.35
2022-09-12T21:16:24.997Z,20.24
2022-09-12T21:18:56.739Z,20.32
2022-09-12T21:21:23.764Z,20.31
2022-09-12T21:23:55.300Z,20.28
2022-09-12T21:26:21.926Z,20.35
2022-09-12T21:28:48.730Z,20.34
2022-09-12T21:31:15.392Z,20.37
2022-09-12T21:33:42.041Z,20.26
2022-09-12T21:36:09.693Z,20.31
2022-09-12T21:38:38.546Z,20.22
2022-09-12T21:41:08.118Z,20.28
2022-09-12T21:43:35.116Z,20.28
2022-09-12T21:46:01.767Z,20.31
2022-09-12T21:48:29.074Z,20.31
2022-09-12T21:50:56.014Z,20.30
2022-09-12T21:53:22.884Z,20.33
2022-09-12T21:55:51.804Z,20.33
2022-09-12T21:58:18.350Z,20.34
2022-09-12T22:00:47.624Z,20.34
2022-09-12T22:03:15.440Z,20.35
2022-09-12T22:05:44.633Z,20.36
2022-09-12T22:08:11.512Z,20.27
2022-09-12T22:10:38.622Z,20.34
2022-09-12T22:13:05.744Z,20.38
2022-09-12T22:15:41.115Z,20.36
2022-09-12T22:18:10.248Z,20.38
2022-09-12T22:20:39.436Z,20.37
2022-09-12T22:23:30.123Z,20.36
2022-09-12T22:26:00.613Z,20.35
2022-09-12T22:28:27.321Z,20.38
2022-09-12T22:30:54.723Z,20.38
2022-09-12T22:33:23.650Z,20.35
2022-09-12T22:35:52.845Z,20.35
2022-09-12T22:38:25.166Z,20.32
2022-09-12T22:40:52.112Z,20.33
2022-09-12T22:43:20.928Z,20.32
2022-09-12T22:45:47.637Z,20.26
2022-09-12T22:48:14.219Z,20.27
2022-09-12T22:50:41.602Z,20.24
2022-09-12T22:53:08.415Z,20.24
2022-09-12T22:55:35.225Z,20.22
2022-09-12T22:58:03.612Z,20.08
2022-09-12T23:00:30.489Z,20.20
2022-09-12T23:02:58.355Z,20.16
2022-09-12T23:05:25.111Z,20.18
2022-09-12T23:07:55.264Z,20.13
2022-09-12T23:10:22.309Z,20.04
2022-09-12T23:12:49.582Z,20.13
2022-09-12T23:15:18.342Z,20.09
2022-09-12T23:17:45.077Z,19.96
2022-09-12T23:20:11.568Z,20.05
2022-09-12T23:22:38.096Z,19.90
2022-09-12T23:25:05.041Z,19.94
2022-09-12T23:27:34.859Z,19.98
2022-09-12T23:30:04.152Z,19.95
2022-09-12T23:32:32.954Z,19.94
2022-09-12T23:34:59.577Z,19.93
2022-09-12T23:37:28.749Z,19.93
2022-09-12T23:39:55.683Z,19.92
2022-09-12T23:42:22.395Z,19.78
2022-09-12T23:44:49.003Z,19.89
2022-09-12T23:47:18.012Z,19.90
2022-09-12T23:49:46.833Z,19.90
2022-09-12T23:52:13.349Z,19.89
2022-09-12T23:54:40.157Z,19.89
2022-09-12T23:57:09.396Z,19.88
2022-09-12T23:59:38.504Z,19.88
